Time;durP1;ratioP1;P1;durP2;ratioP2;P2;SDS_P1;SDS_P2;PMS_P1;PMS_P2;Temp;Humidity;BMP_temperature;BMP_pressure;BME280_temperature;BME280_humidity;BME280_pressure;Samples;Min_cycle;Max_cycle;Signal;HPM_P1;HPM_P2
2021/04/15 00:00:48;;;;;;;1.63;1.00;;;20.50;40.30;;;;;;5091990;28;20031;-53
2021/04/15 00:03:26;;;;;;;2.58;1.10;;;20.50;40.30;;;;;;5091416;28;20075;-57
2021/04/15 00:05:53;;;;;;;1.30;1.00;;;20.50;40.30;;;;;;5092281;28;20039;-50
2021/04/15 00:08:20;;;;;;;2.70;1.25;;;20.50;40.30;;;;;;5091105;28;20036;-55
2021/04/15 00:10:52;;;;;;;1.67;0.90;;;20.50;40.30;;;;;;5092292;28;20034;-52
2021/04/15 00:13:29;;;;;;;2.20;1.05;;;20.50;40.30;;;;;;5091510;28;20032;-54
2021/04/15 00:15:55;;;;;;;1.20;0.90;;;20.50;40.20;;;;;;5091915;28;20376;-51
2021/04/15 00:18:22;;;;;;;1.75;1.00;;;20.50;40.30;;;;;;5090439;28;20380;-49
2021/04/15 00:20:48;;;;;;;1.30;1.02;;;20.50;40.20;;;;;;5090948;28;20027;-50
2021/04/15 00:23:14;;;;;;;1.80;0.80;;;20.50;40.20;;;;;;5091370;28;20127;-57
2021/04/15 00:25:40;;;;;;;1.48;0.90;;;20.50;40.80;;;;;;5090262;28;20051;-49
2021/04/15 00:28:06;;;;;;;1.90;0.98;;;20.50;40.20;;;;;;5091882;28;20032;-54
2021/04/15 00:30:32;;;;;;;2.50;1.00;;;20.50;40.20;;;;;;5091343;28;20106;-53
2021/04/15 00:32:58;;;;;;;2.67;1.00;;;20.50;40.10;;;;;;5091439;28;20107;-48
2021/04/15 00:35:23;;;;;;;1.70;0.82;;;20.50;40.20;;;;;;5091234;28;20469;-52
2021/04/15 00:37:50;;;;;;;1.85;1.00;;;20.50;40.20;;;;;;5091524;28;20028;-53
2021/04/15 00:40:21;;;;;;;2.10;0.98;;;20.50;40.20;;;;;;5091430;28;20055;-57
2021/04/15 00:42:47;;;;;;;1.13;0.80;;;20.50;40.10;;;;;;5092086;28;20462;-52
2021/04/15 00:45:18;;;;;;;2.03;0.98;;;20.50;40.10;;;;;;5091618;28;20039;-51
2021/04/15 00:47:48;;;;;;;1.65;0.95;;;20.50;40.20;;;;;;5091428;28;20157;-56
2021/04/15 00:50:25;;;;;;;1.17;0.80;;;20.50;40.10;;;;;;5091174;28;20032;-57
2021/04/15 00:52:56;;;;;;;1.23;0.93;;;20.50;40.10;;;;;;5090295;28;20030;-54
2021/04/15 00:55:27;;;;;;;1.33;0.80;;;20.50;40.00;;;;;;5090795;28;20064;-53
2021/04/15 00:57:54;;;;;;;1.70;1.08;;;20.50;40.00;;;;;;5091491;28;20043;-54
2021/04/15 01:00:25;;;;;;;1.95;1.08;;;20.50;40.00;;;;;;5090542;28;20032;-52
2021/04/15 01:02:52;;;;;;;1.70;1.00;;;20.50;40.00;;;;;;5091164;28;20055;-50
2021/04/15 01:05:26;;;;;;;1.35;1.00;;;20.50;40.10;;;;;;5090767;28;20020;-56
2021/04/15 01:07:52;;;;;;;2.53;1.27;;;20.50;40.00;;;;;;5091204;28;20036;-54
2021/04/15 01:10:20;;;;;;;1.92;1.10;;;20.50;40.00;;;;;;5089834;28;20043;-55
2021/04/15 01:13:04;;;;;;;2.38;1.15;;;20.50;40.00;;;;;;5090630;28;20515;-52
2021/04/15 01:16:07;;;;;;;1.20;1.08;;;20.50;40.00;;;;;;5090602;28;20396;-51
2021/04/15 01:18:42;;;;;;;1.98;1.00;;;20.50;40.00;;;;;;5089034;28;20028;-54
2021/04/15 01:21:11;;;;;;;2.13;1.38;;;20.50;40.00;;;;;;5076803;28;20107;-54
2021/04/15 01:23:53;;;;;;;2.13;1.23;;;20.50;40.00;;;;;;5080955;28;20028;-54
2021/04/15 01:26:37;;;;;;;1.92;1.10;;;20.50;39.90;;;;;;5090672;28;20047;-57
2021/04/15 01:29:38;;;;;;;2.28;1.05;;;20.50;39.90;;;;;;5091559;28;20043;-55
2021/04/15 01:32:25;;;;;;;1.55;0.90;;;20.50;39.90;;;;;;5037992;28;20553;-52
2021/04/15 01:35:04;;;;;;;1.20;0.90;;;20.50;39.90;;;;;;5074113;28;20446;-55
2021/04/15 01:37:44;;;;;;;1.88;0.95;;;20.50;39.90;;;;;;5091811;28;20439;-55
2021/04/15 01:40:24;;;;;;;1.52;0.90;;;20.50;39.80;;;;;;5094636;28;20394;-53
2021/04/15 01:43:13;;;;;;;2.90;1.00;;;20.50;39.90;;;;;;5094758;28;20055;-54
2021/04/15 01:45:40;;;;;;;2.47;1.10;;;20.50;39.80;;;;;;5094118;28;20016;-54
2021/04/15 01:48:15;;;;;;;3.22;1.17;;;20.50;39.80;;;;;;5094722;28;20130;-51
2021/04/15 01:50:54;;;;;;;2.03;1.13;;;20.50;39.80;;;;;;5094090;28;20099;-52
2021/04/15 01:53:29;;;;;;;2.35;1.02;;;20.50;39.80;;;;;;5093957;28;20516;-52
2021/04/15 01:56:17;;;;;;;3.25;1.10;;;20.50;39.80;;;;;;5094620;28;20154;-50
2021/04/15 01:58:51;;;;;;;2.30;1.23;;;20.50;39.70;;;;;;5093793;28;20060;-49
2021/04/15 02:01:21;;;;;;;1.45;0.85;;;20.50;39.80;;;;;;5091633;28;20020;-57
2021/04/15 02:03:49;;;;;;;1.77;1.05;;;20.50;39.80;;;;;;5094644;28;20044;-52
2021/04/15 02:06:23;;;;;;;1.30;1.00;;;20.50;39.70;;;;;;5094061;28;20059;-53
2021/04/15 02:08:56;;;;;;;1.75;1.00;;;20.50;39.70;;;;;;5094654;28;20036;-50
2021/04/15 02:11:24;;;;;;;2.38;1.00;;;20.50;39.70;;;;;;5093506;28;20032;-56
2021/04/15 02:13:52;;;;;;;2.08;1.00;;;20.50;39.70;;;;;;5094528;28;20073;-50
2021/04/15 02:16:23;;;;;;;1.25;0.93;;;20.50;39.70;;;;;;5094019;28;20032;-57
2021/04/15 02:19:18;;;;;;;2.15;1.00;;;20.60;39.70;;;;;;5094372;28;20454;-52
2021/04/15 02:22:03;;;;;;;1.60;1.00;;;20.60;39.70;;;;;;5093413;28;20028;-51
2021/04/15 02:24:50;;;;;;;2.25;1.10;;;20.50;39.60;;;;;;5092062;28;20035;-54
2021/04/15 02:27:24;;;;;;;1.48;1.00;;;20.50;39.70;;;;;;5094609;28;20035;-53
2021/04/15 02:29:55;;;;;;;1.45;1.02;;;20.50;39.70;;;;;;5093961;28;20040;-53
2021/04/15 02:32:38;;;;;;;2.00;1.13;;;20.50;39.60;;;;;;5093856;28;20045;-58
2021/04/15 02:35:07;;;;;;;1.00;0.80;;;20.50;39.60;;;;;;5073841;28;20258;-55
2021/04/15 02:37:46;;;;;;;2.72;1.30;;;20.50;39.60;;;;;;5092536;28;20529;-50
2021/04/15 02:40:25;;;;;;;1.83;1.13;;;20.50;39.60;;;;;;5094077;28;20055;-54
2021/04/15 02:42:53;;;;;;;1.40;1.00;;;20.50;39.60;;;;;;5094017;28;20020;-53
2021/04/15 02:45:36;;;;;;;4.00;1.42;;;20.60;39.60;;;;;;5093651;28;20115;-56
2021/04/15 02:48:09;;;;;;;3.63;1.10;;;20.50;39.60;;;;;;5088633;28;20066;-52
2021/04/15 02:50:36;;;;;;;1.48;1.00;;;20.50;39.50;;;;;;5092188;28;20020;-53
2021/04/15 02:53:14;;;;;;;1.83;0.88;;;20.50;39.60;;;;;;5093202;28;20388;-52
2021/04/15 02:55:52;;;;;;;1.55;1.05;;;20.50;39.60;;;;;;5092751;28;20036;-54
2021/04/15 02:58:31;;;;;;;3.17;1.10;;;20.50;39.60;;;;;;5093366;28;20032;-57
2021/04/15 03:00:59;;;;;;;2.88;1.23;;;20.60;39.60;;;;;;5093359;28;20031;-52
2021/04/15 03:03:32;;;;;;;1.27;1.05;;;20.50;39.60;;;;;;5091733;28;20044;-56
2021/04/15 03:06:03;;;;;;;1.48;0.98;;;20.50;39.50;;;;;;5093376;28;20024;-55
2021/04/15 03:08:30;;;;;;;2.25;1.05;;;20.60;39.60;;;;;;5092084;28;20083;-54
2021/04/15 03:11:07;;;;;;;1.50;1.10;;;20.60;39.60;;;;;;5093291;28;20377;-55
2021/04/15 03:13:55;;;;;;;1.35;0.95;;;20.60;39.60;;;;;;5092131;28;20032;-57
2021/04/15 03:16:25;;;;;;;1.55;1.05;;;20.60;39.60;;;;;;5092251;28;20119;-57
2021/04/15 03:18:55;;;;;;;2.58;1.10;;;20.60;39.60;;;;;;5092991;28;20089;-52
2021/04/15 03:21:35;;;;;;;1.67;1.02;;;20.60;39.50;;;;;;5091981;28;20024;-56
2021/04/15 03:24:34;;;;;;;2.00;1.08;;;20.60;39.50;;;;;;5092892;28;20039;-53
2021/04/15 03:27:15;;;;;;;1.10;0.70;;;20.60;39.50;;;;;;5089982;28;20063;-51
2021/04/15 03:29:52;;;;;;;2.40;0.90;;;20.50;39.50;;;;;;5092131;28;20101;-54
2021/04/15 03:32:33;;;;;;;6.85;1.83;;;20.60;39.60;;;;;;5093038;28;20384;-50
2021/04/15 03:35:21;;;;;;;2.70;1.10;;;20.60;39.50;;;;;;5092415;28;20036;-52
2021/04/15 03:38:15;;;;;;;2.25;1.20;;;20.60;39.50;;;;;;5092428;28;20031;-53
2021/04/15 03:40:49;;;;;;;1.92;1.00;;;20.60;39.50;;;;;;5092118;28;20154;-49
2021/04/15 03:43:22;;;;;;;1.38;1.20;;;20.60;39.50;;;;;;5092742;28;20046;-51
2021/04/15 03:46:02;;;;;;;2.05;1.20;;;20.60;39.50;;;;;;5092600;28;20103;-54
2021/04/15 03:48:34;;;;;;;0.80;0.70;;;20.60;39.50;;;;;;5091364;28;20047;-58
2021/04/15 03:51:05;;;;;;;1.58;1.30;;;20.60;39.50;;;;;;5092362;28;20036;-53
2021/04/15 03:53:41;;;;;;;1.90;1.10;;;20.60;39.40;;;;;;5091901;28;20099;-53
2021/04/15 03:56:14;;;;;;;1.98;1.10;;;20.60;39.40;;;;;;5092345;28;20024;-54
2021/04/15 03:58:52;;;;;;;2.28;1.98;;;20.60;39.50;;;;;;5080329;28;20453;-53
2021/04/15 04:01:24;;;;;;;2.72;1.73;;;20.60;39.50;;;;;;5080997;28;20028;-48
2021/04/15 04:04:24;;;;;;;;;;;20.60;39.50;;;;;;5092126;28;20067;-48
2021/04/15 04:06:51;;;;;;;1.73;1.33;;;20.60;39.50;;;;;;5092520;28;19912;-54
2021/04/15 04:09:28;;;;;;;2.47;1.20;;;20.60;39.50;;;;;;5091582;28;20093;-51
2021/04/15 04:11:54;;;;;;;1.77;1.27;;;20.60;39.40;;;;;;5092007;28;20024;-53
2021/04/15 04:14:32;;;;;;;1.42;1.10;;;20.60;39.40;;;;;;5092430;28;20157;-51
2021/04/15 04:17:05;;;;;;;2.53;1.23;;;20.60;39.40;;;;;;5092328;28;20082;-50
2021/04/15 04:19:36;;;;;;;1.10;0.90;;;20.60;39.40;;;;;;5091238;28;20028;-57
2021/04/15 04:22:36;;;;;;;1.95;1.00;;;20.60;39.40;;;;;;5091808;28;20028;-51
2021/04/15 04:25:18;;;;;;;1.50;1.20;;;20.60;39.40;;;;;;5091706;28;20032;-48
2021/04/15 04:28:02;;;;;;;1.57;1.00;;;20.60;39.40;;;;;;5090632;28;20028;-54
2021/04/15 04:31:00;;;;;;;1.85;1.05;;;20.60;39.50;;;;;;5091002;28;20081;-49
2021/04/15 04:33:40;;;;;;;1.30;0.93;;;20.60;39.80;;;;;;5036526;28;20040;-54
2021/04/15 04:36:09;;;;;;;1.95;1.10;;;20.60;39.40;;;;;;5071835;28;20028;-55
2021/04/15 04:38:35;;;;;;;2.00;1.10;;;20.60;39.40;;;;;;5090578;28;20034;-55
2021/04/15 04:41:15;;;;;;;3.58;1.33;;;20.60;39.40;;;;;;5091906;28;20027;-54
2021/04/15 04:43:52;;;;;;;1.48;0.90;;;20.60;39.40;;;;;;5091516;28;20033;-51
2021/04/15 04:46:37;;;;;;;1.60;1.00;;;20.60;39.30;;;;;;5077665;28;20016;-49
2021/04/15 04:49:32;;;;;;;1.45;0.95;;;20.60;39.40;;;;;;5091591;28;20032;-50
2021/04/15 04:52:09;;;;;;;2.08;1.58;;;20.60;39.40;;;;;;5091106;28;20499;-45
2021/04/15 04:54:38;;;;;;;2.63;1.20;;;20.60;39.30;;;;;;5090974;28;20073;-56
2021/04/15 04:57:23;;;;;;;1.75;1.20;;;20.60;39.30;;;;;;5091167;28;20032;-55
2021/04/15 04:59:58;;;;;;;3.25;1.27;;;20.60;39.30;;;;;;5090894;28;20047;-51
2021/04/15 05:02:24;;;;;;;2.55;0.85;;;20.60;39.30;;;;;;5091069;28;20032;-54
2021/04/15 05:04:49;;;;;;;2.35;1.20;;;20.60;39.40;;;;;;5091285;28;20048;-50
2021/04/15 05:07:24;;;;;;;2.15;1.10;;;20.60;39.30;;;;;;5090057;28;20469;-52
2021/04/15 05:09:52;;;;;;;2.65;1.20;;;20.60;39.30;;;;;;5090898;28;20024;-51
2021/04/15 05:12:28;;;;;;;1.77;1.10;;;20.60;39.90;;;;;;5091767;28;20098;-51
2021/04/15 05:14:55;;;;;;;2.17;1.00;;;20.60;39.30;;;;;;5095572;28;20036;-51
2021/04/15 05:17:24;;;;;;;1.60;1.05;;;20.60;39.30;;;;;;5095169;28;20051;-52
2021/04/15 05:19:51;;;;;;;1.48;1.17;;;20.60;39.30;;;;;;5094945;28;20163;-52
2021/04/15 05:22:47;;;;;;;1.98;0.90;;;20.60;39.30;;;;;;5095772;28;20081;-49
2021/04/15 05:26:01;;;;;;;1.30;0.85;;;20.70;39.30;;;;;;5061306;28;20044;-50
2021/04/15 05:28:29;;;;;;;1.55;0.85;;;20.60;39.30;;;;;;5081864;28;20059;-57
2021/04/15 05:30:55;;;;;;;1.48;1.02;;;20.60;39.30;;;;;;5094533;28;20016;-50
2021/04/15 05:33:23;;;;;;;2.15;0.88;;;20.60;39.30;;;;;;5087848;28;20020;-54
2021/04/15 05:36:07;;;;;;;1.75;1.08;;;20.60;39.30;;;;;;5094665;28;20032;-50
2021/04/15 05:38:41;;;;;;;3.92;1.27;;;20.70;39.40;;;;;;5092933;28;20032;-52
2021/04/15 05:41:12;;;;;;;2.75;1.08;;;20.70;39.60;;;;;;5095351;28;20031;-52
2021/04/15 05:43:50;;;;;;;2.85;0.93;;;20.70;40.10;;;;;;5093950;28;20060;-48
2021/04/15 05:46:24;;;;;;;2.72;1.10;;;20.70;40.30;;;;;;5076673;28;20036;-54
2021/04/15 05:48:56;;;;;;;2.67;1.02;;;20.70;40.30;;;;;;5095141;28;20093;-55
2021/04/15 05:51:28;;;;;;;2.78;1.10;;;20.70;40.40;;;;;;5084319;28;20054;-46
2021/04/15 05:53:59;;;;;;;6.68;1.30;;;20.70;40.50;;;;;;5094737;28;20571;-52
2021/04/15 05:56:35;;;;;;;6.97;1.50;;;20.70;40.60;;;;;;5093412;28;20026;-51
2021/04/15 05:59:25;;;;;;;6.30;1.55;;;20.80;40.80;;;;;;5094743;28;20032;-57
2021/04/15 06:02:29;;;;;;;6.32;1.98;;;20.70;40.80;;;;;;5093897;28;20491;-52
2021/04/15 06:05:06;;;;;;;6.03;1.92;;;20.80;41.00;;;;;;5094439;28;20469;-53
2021/04/15 06:07:34;;;;;;;6.43;1.48;;;20.80;41.20;;;;;;5088294;28;20487;-54
2021/04/15 06:10:00;;;;;;;10.98;1.60;;;20.80;41.10;;;;;;5094373;28;20106;-55
2021/04/15 06:12:58;;;;;;;10.95;3.05;;;20.80;41.20;;;;;;5093797;28;20103;-58
2021/04/15 06:15:26;;;;;;;11.63;1.48;;;20.80;41.30;;;;;;5093694;28;20473;-54
2021/04/15 06:18:00;;;;;;;21.17;3.22;;;20.80;41.30;;;;;;5093414;28;20108;-56
2021/04/15 06:20:37;;;;;;;10.25;1.63;;;20.80;41.20;;;;;;5093503;28;20035;-57
2021/04/15 06:23:16;;;;;;;8.70;2.00;;;20.80;41.20;;;;;;5092950;28;20524;-54
2021/04/15 06:25:45;;;;;;;6.53;1.85;;;20.80;41.10;;;;;;5093162;28;20354;-66
2021/04/15 06:28:22;;;;;;;7.05;1.92;;;20.80;41.50;;;;;;5093967;28;20041;-70
2021/04/15 06:30:50;;;;;;;11.18;2.00;;;20.80;41.30;;;;;;5093635;28;20550;-69
2021/04/15 06:33:19;;;;;;;10.43;2.00;;;20.80;41.40;;;;;;5093191;28;20028;-67
2021/04/15 06:35:48;;;;;;;10.70;1.95;;;20.80;41.70;;;;;;5093437;28;20040;-73
2021/04/15 06:38:20;;;;;;;7.75;1.70;;;20.80;41.80;;;;;;5092905;28;20028;-73
2021/04/15 06:41:01;;;;;;;9.85;2.22;;;20.80;41.80;;;;;;5093014;28;20774;-72
2021/04/15 06:43:29;;;;;;;8.70;1.75;;;20.80;41.80;;;;;;5093836;28;20024;-65
2021/04/15 06:46:05;;;;;;;10.98;2.75;;;20.80;41.80;;;;;;5093226;28;20119;-73
2021/04/15 06:49:06;;;;;;;7.47;2.33;;;20.80;41.80;;;;;;5092943;28;20098;-68
2021/04/15 06:51:36;;;;;;;9.85;2.10;;;20.80;41.80;;;;;;5092903;28;20435;-72
2021/04/15 06:54:12;;;;;;;8.40;2.00;;;20.80;41.80;;;;;;5093821;28;20032;-72
2021/04/15 06:56:59;;;;;;;5.97;1.90;;;20.80;41.70;;;;;;5091613;28;20024;-71
2021/04/15 06:59:52;;;;;;;9.80;1.80;;;20.80;41.70;;;;;;5092935;28;20032;-71
2021/04/15 07:02:36;;;;;;;4.93;1.58;;;20.80;41.70;;;;;;5092313;28;20157;-71
2021/04/15 07:05:17;;;;;;;7.55;1.88;;;20.80;41.60;;;;;;5092616;28;20473;-71
2021/04/15 07:07:59;;;;;;;7.97;1.63;;;20.80;41.70;;;;;;5078510;28;20481;-66
2021/04/15 07:10:57;;;;;;;9.73;2.17;;;20.70;41.70;;;;;;5086762;28;20047;-69
2021/04/15 07:13:39;;;;;;;15.88;2.17;;;20.70;41.50;;;;;;5086948;28;20496;-72
2021/04/15 07:16:10;;;;;;;13.90;2.42;;;20.80;42.10;;;;;;5092837;28;20043;-66
2021/04/15 07:18:58;;;;;;;6.80;2.05;;;20.80;42.00;;;;;;5091655;28;20024;-70
2021/04/15 07:21:46;;;;;;;6.03;2.00;;;20.80;42.10;;;;;;5078537;28;20036;-69
2021/04/15 07:24:37;;;;;;;9.57;1.50;;;20.80;42.20;;;;;;5072590;28;20529;-70
2021/04/15 07:27:07;;;;;;;23.40;2.20;;;20.80;42.30;;;;;;5079542;28;20036;-72
2021/04/15 07:29:40;;;;;;;6.97;2.50;;;20.80;42.10;;;;;;5092211;28;20157;-70
2021/04/15 07:32:25;;;;;;;6.90;1.70;;;20.80;42.10;;;;;;5081715;28;20412;-73
2021/04/15 07:35:08;;;;;;;7.03;1.98;;;20.80;42.00;;;;;;5090843;28;20078;-74
2021/04/15 07:38:01;;;;;;;10.07;2.05;;;20.70;42.00;;;;;;5091006;28;20024;-73
2021/04/15 07:40:52;;;;;;;6.15;1.50;;;20.80;42.00;;;;;;5092742;28;20465;-67
2021/04/15 07:43:55;;;;;;;6.75;2.55;;;20.70;41.90;;;;;;5092393;28;20024;-73
2021/04/15 07:46:45;;;;;;;8.10;2.20;;;20.70;41.90;;;;;;5077103;28;20028;-73
2021/04/15 07:49:38;;;;;;;6.95;1.70;;;20.80;41.80;;;;;;5092649;28;20358;-72
2021/04/15 07:52:27;;;;;;;6.72;1.73;;;20.80;41.80;;;;;;5092150;28;20028;-73
2021/04/15 07:55:21;;;;;;;7.57;2.25;;;20.80;41.80;;;;;;5091429;28;20466;-73
2021/04/15 07:57:55;;;;;;;5.10;1.60;;;20.70;41.70;;;;;;5091116;28;20432;-72
2021/04/15 08:00:20;;;;;;;7.05;1.52;;;20.70;41.70;;;;;;5092268;28;20099;-72
2021/04/15 08:03:00;;;;;;;3.95;1.60;;;20.70;41.70;;;;;;5090591;28;20055;-73
2021/04/15 08:05:28;;;;;;;3.83;1.70;;;20.70;41.60;;;;;;5092479;28;20039;-73
2021/04/15 08:08:18;;;;;;;5.68;1.25;;;20.70;41.60;;;;;;5090834;28;20488;-73
2021/04/15 08:11:01;;;;;;;5.40;1.40;;;20.70;41.60;;;;;;5091147;28;20024;-72
2021/04/15 08:13:47;;;;;;;4.03;1.48;;;20.70;41.50;;;;;;5091563;28;20473;-72
2021/04/15 08:16:34;;;;;;;4.22;1.98;;;20.70;41.40;;;;;;5091247;28;20036;-73
2021/04/15 08:19:29;;;;;;;3.53;1.52;;;20.70;41.40;;;;;;5070888;28;20101;-69
2021/04/15 08:22:05;;;;;;;3.13;1.60;;;20.70;41.30;;;;;;5085344;28;20047;-71
2021/04/15 08:25:08;;;;;;;3.80;1.38;;;20.80;41.30;;;;;;5090862;28;20028;-73
2021/04/15 08:28:01;;;;;;;5.70;1.52;;;20.70;41.20;;;;;;5080731;28;20040;-72
2021/04/15 08:31:08;;;;;;;4.13;1.30;;;20.70;41.30;;;;;;5091705;28;20028;-72
2021/04/15 08:33:56;;;;;;;2.97;1.10;;;20.70;41.20;;;;;;5050294;28;20517;-68
2021/04/15 08:36:59;;;;;;;2.40;1.42;;;20.70;41.20;;;;;;5090582;28;20036;-69
2021/04/15 08:39:54;;;;;;;3.13;1.48;;;20.70;41.20;;;;;;5090866;28;20032;-71
2021/04/15 08:42:41;;;;;;;5.20;1.75;;;20.70;41.10;;;;;;5080928;28;20046;-71
2021/04/15 08:45:22;;;;;;;3.63;1.73;;;20.70;41.10;;;;;;5090086;28;20121;-72
2021/04/15 08:48:00;;;;;;;2.95;1.17;;;20.70;41.10;;;;;;5084393;28;20028;-71
2021/04/15 08:50:48;;;;;;;3.60;1.38;;;20.70;41.00;;;;;;5095445;28;20024;-71
2021/04/15 08:53:34;;;;;;;3.28;1.20;;;20.70;41.00;;;;;;5095486;28;20039;-69
2021/04/15 08:56:06;;;;;;;3.22;1.52;;;20.70;40.90;;;;;;5079545;28;20108;-72
2021/04/15 08:58:31;;;;;;;;;;;20.70;40.90;;;;;;5080756;28;20036;-71
2021/04/15 09:01:22;;;;;;;4.35;1.65;;;20.70;40.90;;;;;;5093869;28;20273;-70
2021/04/15 09:04:03;;;;;;;2.47;1.40;;;20.70;40.80;;;;;;5093863;28;20076;-72
2021/04/15 09:06:48;;;;;;;4.43;1.50;;;20.70;40.90;;;;;;5094956;28;20334;-72
2021/04/15 09:09:26;;;;;;;3.35;1.17;;;20.70;40.80;;;;;;5095444;28;20109;-71
2021/04/15 09:12:17;;;;;;;2.17;1.00;;;20.70;40.80;;;;;;5094908;28;20024;-72
2021/04/15 09:14:51;;;;;;;3.83;1.33;;;20.70;40.70;;;;;;5094415;28;20182;-65
2021/04/15 09:17:44;;;;;;;1.70;1.00;;;20.70;40.70;;;;;;5093545;28;20040;-65
2021/04/15 09:20:35;;;;;;;2.65;1.20;;;20.70;40.60;;;;;;5082909;28;20040;-71
2021/04/15 09:23:31;;;;;;;1.73;0.95;;;20.70;40.60;;;;;;5094059;28;20040;-72
2021/04/15 09:26:16;;;;;;;3.65;1.27;;;20.70;40.70;;;;;;5092884;28;20051;-71
2021/04/15 09:29:14;;;;;;;2.00;1.05;;;20.70;40.60;;;;;;5094733;28;20042;-63
2021/04/15 09:31:50;;;;;;;4.05;1.08;;;20.70;40.60;;;;;;5093552;28;20069;-71
2021/04/15 09:34:18;;;;;;;2.85;1.15;;;20.70;40.70;;;;;;5094315;28;20031;-71
2021/04/15 09:37:15;;;;;;;2.17;1.13;;;20.70;40.60;;;;;;5088648;28;20037;-64
2021/04/15 09:40:01;;;;;;;4.68;1.42;;;20.80;40.60;;;;;;5082030;28;20037;-67
2021/04/15 09:42:39;;;;;;;3.10;1.20;;;20.70;40.50;;;;;;5072186;28;20029;-69
2021/04/15 09:45:29;;;;;;;2.25;1.02;;;20.70;40.50;;;;;;5091682;28;20047;-71
2021/04/15 09:48:33;;;;;;;3.00;1.00;;;20.80;40.50;;;;;;5093210;28;20354;-71
2021/04/15 09:51:29;;;;;;;2.38;1.13;;;20.80;40.50;;;;;;5093591;28;20024;-67
2021/04/15 09:54:21;;;;;;;1.65;0.90;;;20.70;40.40;;;;;;5094166;28;20027;-67
2021/04/15 09:57:18;;;;;;;1.70;1.10;;;20.70;40.40;;;;;;5089357;28;20032;-67
2021/04/15 10:00:21;;;;;;;2.63;0.90;;;20.80;40.40;;;;;;5081581;28;20032;-64
2021/04/15 10:02:52;;;;;;;2.85;0.90;;;20.80;40.30;;;;;;5092868;28;20111;-67
2021/04/15 10:05:37;;;;;;;;;;;20.80;40.40;;;;;;5078724;28;20056;-71
2021/04/15 10:08:22;;;;;;;1.40;0.80;;;20.80;40.40;;;;;;5080191;28;19939;-70
2021/04/15 10:11:19;;;;;;;2.97;0.90;;;20.80;40.40;;;;;;5073884;28;20028;-70
2021/04/15 10:14:08;;;;;;;2.17;0.85;;;20.80;40.30;;;;;;5080729;28;20024;-64
2021/04/15 10:16:42;;;;;;;2.15;0.90;;;20.80;40.30;;;;;;5082715;28;20040;-65
2021/04/15 10:19:51;;;;;;;0.93;0.70;;;20.80;40.20;;;;;;5093815;28;20082;-70
2021/04/15 10:23:01;;;;;;;2.10;0.75;;;20.80;40.20;;;;;;5083949;28;20031;-66
2021/04/15 10:25:46;;;;;;;1.25;0.63;;;20.80;40.10;;;;;;5062492;28;20040;-70
2021/04/15 10:28:15;;;;;;;1.75;0.93;;;20.80;40.10;;;;;;5090433;28;20127;-71
2021/04/15 10:30:47;;;;;;;2.13;0.70;;;20.80;40.10;;;;;;5093445;28;20028;-70
2021/04/15 10:33:40;;;;;;;1.45;0.68;;;20.80;40.10;;;;;;5094264;28;20028;-71
2021/04/15 10:36:17;;;;;;;1.63;1.35;;;20.80;40.10;;;;;;5093123;28;20589;-70
2021/04/15 10:39:07;;;;;;;3.60;1.15;;;20.80;40.20;;;;;;5092854;28;20052;-64
2021/04/15 10:41:45;;;;;;;1.10;0.70;;;20.80;40.10;;;;;;5093812;28;20036;-69
2021/04/15 10:44:29;;;;;;;1.13;0.60;;;20.80;40.20;;;;;;5092203;28;20043;-70
2021/04/15 10:47:31;;;;;;;1.20;0.90;;;20.80;40.10;;;;;;5092493;28;20040;-63
2021/04/15 10:50:08;;;;;;;3.63;0.90;;;20.80;40.30;;;;;;5092667;28;20024;-71
2021/04/15 10:52:58;;;;;;;1.30;0.68;;;20.80;40.30;;;;;;5092528;28;20020;-70
2021/04/15 10:55:33;;;;;;;1.35;0.70;;;20.80;40.30;;;;;;5092677;28;20027;-70
2021/04/15 10:58:29;;;;;;;1.55;0.70;;;20.80;40.80;;;;;;5091928;28;20036;-73
2021/04/15 11:00:57;;;;;;;1.58;0.85;;;20.80;41.00;;;;;;5078978;28;20036;-71
2021/04/15 11:03:32;;;;;;;4.90;1.00;;;20.90;41.80;;;;;;5092940;28;20048;-68
2021/04/15 11:05:58;;;;;;;3.75;0.90;;;20.90;41.50;;;;;;5092226;28;20400;-67
2021/04/15 11:08:24;;;;;;;2.05;0.73;;;20.80;41.50;;;;;;5091355;28;20020;-70
2021/04/15 11:10:51;;;;;;;1.50;0.80;;;20.80;41.50;;;;;;5090945;28;20039;-72
2021/04/15 11:13:24;;;;;;;1.70;0.95;;;20.90;41.40;;;;;;5092755;28;20032;-72
2021/04/15 11:15:53;;;;;;;1.95;0.60;;;20.80;41.30;;;;;;5090734;28;20039;-73
2021/04/15 11:18:33;;;;;;;1.55;0.82;;;20.80;41.30;;;;;;5093210;28;20040;-71
2021/04/15 11:21:29;;;;;;;1.95;0.93;;;20.90;41.20;;;;;;5091956;28;20073;-69
2021/04/15 11:23:56;;;;;;;1.58;0.70;;;20.80;41.20;;;;;;5091471;28;20432;-72
2021/04/15 11:26:27;;;;;;;2.35;0.60;;;20.80;41.10;;;;;;5092547;28;20059;-72
2021/04/15 11:28:56;;;;;;;2.05;0.80;;;20.90;41.10;;;;;;5092334;28;20346;-69
2021/04/15 11:31:36;;;;;;;0.98;0.70;;;20.90;41.10;;;;;;5092294;28;20024;-69
2021/04/15 11:34:07;;;;;;;4.15;1.20;;;20.90;41.10;;;;;;5091948;28;20442;-69
2021/04/15 11:36:38;;;;;;;5.43;1.00;;;20.90;41.50;;;;;;5090130;28;20044;-71
2021/04/15 11:39:03;;;;;;;1.77;0.70;;;20.90;42.30;;;;;;5074423;28;20099;-68
2021/04/15 11:41:30;;;;;;;1.88;0.65;;;20.90;41.60;;;;;;5073517;28;20107;-69
2021/04/15 11:44:07;;;;;;;3.95;0.80;;;20.90;41.70;;;;;;5089568;28;20108;-69
2021/04/15 11:46:38;;;;;;;0.90;0.75;;;20.90;41.80;;;;;;5090327;28;20036;-72
2021/04/15 11:49:08;;;;;;;1.48;0.60;;;20.90;41.70;;;;;;5071508;28;20029;-65
2021/04/15 11:51:53;;;;;;;1.33;0.50;;;20.90;41.70;;;;;;5087616;28;20028;-72
2021/04/15 11:54:40;;;;;;;2.88;0.57;;;20.90;41.70;;;;;;5092027;28;20081;-71
2021/04/15 11:57:18;;;;;;;3.45;0.60;;;20.90;41.60;;;;;;5091135;28;20023;-66
2021/04/15 12:00:05;;;;;;;1.95;0.55;;;20.90;41.50;;;;;;5092318;28;20425;-73
2021/04/15 12:02:47;;;;;;;2.33;0.60;;;20.90;41.50;;;;;;5076526;28;20044;-72
2021/04/15 12:05:15;;;;;;;1.02;0.60;;;20.90;41.40;;;;;;5091651;28;20040;-70
2021/04/15 12:08:05;;;;;;;1.23;0.40;;;20.90;41.40;;;;;;5090797;28;20024;-66
2021/04/15 12:10:34;;;;;;;3.75;0.77;;;20.90;42.00;;;;;;5090103;28;20023;-70
2021/04/15 12:13:06;;;;;;;1.00;0.57;;;20.90;41.40;;;;;;5091063;28;20388;-71
2021/04/15 12:15:38;;;;;;;0.90;0.60;;;20.90;41.30;;;;;;5090973;28;20031;-71
2021/04/15 12:18:36;;;;;;;0.70;0.50;;;20.90;41.10;;;;;;5080298;28;20021;-68
2021/04/15 12:21:16;;;;;;;1.85;0.75;;;20.90;41.20;;;;;;5083610;28;20040;-72
2021/04/15 12:23:56;;;;;;;1.77;0.63;;;20.90;41.10;;;;;;5071773;28;20032;-65
2021/04/15 12:26:34;;;;;;;2.28;0.60;;;20.90;41.00;;;;;;5085425;28;20043;-73
2021/04/15 12:29:05;;;;;;;2.45;1.05;;;20.90;41.00;;;;;;5090784;28;20078;-66
2021/04/15 12:31:40;;;;;;;1.85;0.50;;;20.90;41.00;;;;;;5091211;28;20029;-71
2021/04/15 12:34:08;;;;;;;1.63;0.73;;;20.90;41.00;;;;;;5089574;28;20036;-71
2021/04/15 12:36:40;;;;;;;1.25;0.52;;;20.90;40.90;;;;;;5091277;28;20032;-71
2021/04/15 12:39:13;;;;;;;0.70;0.60;;;20.90;40.90;;;;;;5091039;28;20365;-71
2021/04/15 12:41:39;;;;;;;2.15;0.50;;;20.90;40.90;;;;;;5090963;28;20036;-73
2021/04/15 12:44:16;;;;;;;0.85;0.70;;;20.90;40.70;;;;;;5089188;28;20028;-71
2021/04/15 12:46:44;;;;;;;1.50;1.23;;;20.90;40.70;;;;;;5089687;28;20427;-73
2021/04/15 12:49:14;;;;;;;1.80;0.60;;;20.90;40.80;;;;;;5090123;28;20162;-72
2021/04/15 12:52:08;;;;;;;0.80;0.60;;;20.90;40.70;;;;;;5091138;28;20024;-72
2021/04/15 12:54:36;;;;;;;1.38;0.60;;;20.90;40.70;;;;;;5086895;28;20052;-71
2021/04/15 12:57:08;;;;;;;0.88;0.47;;;20.90;40.60;;;;;;5089807;28;20039;-71
2021/04/15 12:59:41;;;;;;;0.95;0.40;;;20.90;40.70;;;;;;5091799;28;20089;-68
2021/04/15 13:02:18;;;;;;;1.23;0.50;;;20.90;40.70;;;;;;5088499;28;20035;-70
2021/04/15 13:05:10;;;;;;;0.57;0.40;;;20.90;40.60;;;;;;5091393;28;20072;-68
2021/04/15 13:07:39;;;;;;;0.50;0.50;;;20.90;40.70;;;;;;5078797;28;20082;-64
2021/04/15 13:10:13;;;;;;;0.55;0.40;;;20.90;40.60;;;;;;5074895;28;20296;-67
2021/04/15 13:12:39;;;;;;;1.95;0.70;;;20.90;40.60;;;;;;5090375;28;20119;-70
2021/04/15 13:15:28;;;;;;;0.75;0.40;;;20.90;40.50;;;;;;5090048;28;20417;-67
2021/04/15 13:17:56;;;;;;;1.05;0.52;;;20.90;40.60;;;;;;5077708;28;20089;-72
2021/04/15 13:20:24;;;;;;;1.65;0.60;;;20.90;40.50;;;;;;5070384;28;20534;-72
2021/04/15 13:23:08;;;;;;;0.98;0.50;;;20.90;40.50;;;;;;5084312;28;20038;-64
2021/04/15 13:25:54;;;;;;;0.88;0.43;;;20.90;40.40;;;;;;5090003;28;20032;-71
2021/04/15 13:28:25;;;;;;;0.85;0.32;;;20.90;40.50;;;;;;5076409;28;20044;-71
2021/04/15 13:30:58;;;;;;;1.65;0.50;;;20.90;40.50;;;;;;5091017;28;20028;-63
2021/04/15 13:33:34;;;;;;;0.80;0.52;;;20.90;40.50;;;;;;5092050;28;20397;-70
2021/04/15 13:36:00;;;;;;;0.77;0.47;;;20.90;40.50;;;;;;5093819;28;20107;-70
2021/04/15 13:38:29;;;;;;;0.90;0.50;;;20.90;40.50;;;;;;5081081;28;20120;-71
2021/04/15 13:41:00;;;;;;;2.35;0.50;;;21.00;40.50;;;;;;5093686;28;20077;-68
2021/04/15 13:43:33;;;;;;;0.80;0.52;;;21.00;40.40;;;;;;5094626;28;20031;-70
2021/04/15 13:46:24;;;;;;;0.55;0.45;;;21.00;40.40;;;;;;5092633;28;20096;-68